Pays
Station

 

Conditions  météo  pour  Ephrata, Ephrata Municipal Airport  -  Etats-Unis    Etats-Unis

  
21 °C
    
 
 

METAR pour Ephrata, Ephrata Municipal Airport :

KEPH 212353Z AUTO 07003KT 10SM CLR 21/01 A3000 RMK AO2 SLP157 T02060006 10211 20150 56010

 

Voici le bulletin pour Ephrata, Ephrata Municipal Airport - Etats-Unis.
 
Le bulletin a été fait il y a un moment, à 23:53 UTC .
Le vent soufflait à la vitesse de 1.5 mètres par seconde de Est/Nord-est (070°).
 
La température était de 21 °C, avec un point de rosée à 1 °C.
La pression atmosphérique était de 1016 hPa.
L'humidité relative était de 26.4%.
 
Le ciel était clair.
 
La visibilité globale était de 16.1 kilomètres.
 

 
 
 

Pays :   A   B   C   D   E   F   G   H   I   J   K   L   M   N   O   P   Q   R   S   T   U   V   W   Y   Z

 

Partenaires :  Info Météo avec Met'info
Météo Marine avec MeteoMarine.net
Infos Site  |  Infos Légales  |  Crédits  |  Confidentialité
Contactez-nous  |  Ajouter aux favoris
© 2013-2018 METAR - Tous droits réservés